createdAt,value
2023-05-23T00:04:07.407Z,100069.38
2023-05-23T00:09:08.826Z,100070.75
2023-05-23T00:14:10.708Z,100065.53
2023-05-23T00:19:15.032Z,100060.19
2023-05-23T00:24:18.489Z,100068.16
2023-05-23T00:29:20.459Z,100074.53
2023-05-23T00:34:21.863Z,100073.78
2023-05-23T00:39:23.227Z,100080.91
2023-05-23T00:44:24.632Z,100090.19
2023-05-23T00:49:28.083Z,100085.22
2023-05-23T00:54:33.698Z,100099.28
2023-05-23T00:59:36.971Z,100097.41
2023-05-23T01:04:38.972Z,100113.91
2023-05-23T01:09:40.522Z,100112.97
2023-05-23T01:14:48.769Z,100115.09
2023-05-23T01:20:02.465Z,100117.13
2023-05-23T01:25:22.114Z,100107.91
2023-05-23T01:30:26.215Z,100118.44
2023-05-23T01:35:28.152Z,100125.22
2023-05-23T01:40:29.683Z,100114.75
2023-05-23T01:45:31.833Z,100108.91
2023-05-23T01:50:34.082Z,100117.03
2023-05-23T01:55:35.698Z,100127.91
2023-05-23T02:00:37.143Z,100136.63
2023-05-23T02:05:38.655Z,100137.38
2023-05-23T02:10:40.331Z,100145.34
2023-05-23T02:15:41.841Z,100149.91
2023-05-23T02:20:43.724Z,100156.28
2023-05-23T02:25:45.143Z,100151.28
2023-05-23T02:30:46.686Z,100146.16
2023-05-23T02:35:50.035Z,100148.19
2023-05-23T02:40:53.484Z,100154.75
2023-05-23T02:45:54.907Z,100161.03
2023-05-23T02:50:56.415Z,100176.47
2023-05-23T02:55:57.825Z,100175.00
2023-05-23T03:00:59.234Z,100186.16
2023-05-23T03:06:03.509Z,100175.34
2023-05-23T03:11:05.090Z,100175.47
2023-05-23T03:16:06.859Z,100188.53
2023-05-23T03:21:09.686Z,100182.50
2023-05-23T03:26:11.842Z,100191.06
2023-05-23T03:31:13.383Z,100184.88
2023-05-23T03:36:14.904Z,100196.97
2023-05-23T03:41:16.522Z,100206.34
2023-05-23T03:46:18.933Z,100200.28
2023-05-23T03:51:20.940Z,100224.44
2023-05-23T03:56:22.934Z,100227.50
2023-05-23T04:01:25.079Z,100237.47
2023-05-23T04:06:27.407Z,100232.13
2023-05-23T04:11:29.033Z,100236.03
2023-05-23T04:16:33.429Z,100231.34
2023-05-23T04:21:35.081Z,100242.25
2023-05-23T04:26:36.676Z,100249.34
2023-05-23T04:31:38.235Z,100265.66
2023-05-23T04:36:40.218Z,100279.47
2023-05-23T04:41:42.378Z,100276.63
2023-05-23T04:46:45.307Z,100295.06
2023-05-23T04:51:46.942Z,100284.50
2023-05-23T04:56:48.314Z,100289.63
2023-05-23T05:01:49.717Z,100291.97
2023-05-23T05:06:52.395Z,100296.22
2023-05-23T05:11:53.794Z,100306.22
2023-05-23T05:16:57.389Z,100302.78
2023-05-23T05:22:00.154Z,100311.28
2023-05-23T05:27:01.794Z,100319.97
2023-05-23T05:32:03.377Z,100317.31
2023-05-23T05:37:05.028Z,100314.72
2023-05-23T05:42:06.498Z,100327.34
2023-05-23T05:47:07.917Z,100337.59
2023-05-23T05:52:09.387Z,100351.31
2023-05-23T05:57:10.777Z,100354.03
2023-05-23T06:02:12.331Z,100347.31
2023-05-23T06:07:13.773Z,100354.91
2023-05-23T06:12:15.174Z,100358.16
2023-05-23T06:17:17.030Z,100349.13
2023-05-23T06:22:18.570Z,100361.38
2023-05-23T06:27:19.960Z,100363.78
2023-05-23T06:32:21.345Z,100362.56
2023-05-23T06:37:22.789Z,100373.94
2023-05-23T06:42:24.180Z,100368.16
2023-05-23T06:47:25.747Z,100364.13
2023-05-23T06:52:27.147Z,100349.66
2023-05-23T06:57:28.527Z,100342.19
2023-05-23T07:02:29.941Z,100341.47
2023-05-23T07:07:31.395Z,100339.38
2023-05-23T07:12:34.851Z,100346.13
2023-05-23T07:17:36.555Z,100350.19
2023-05-23T07:22:37.984Z,100364.88
2023-05-23T07:27:39.456Z,100360.19
2023-05-23T07:32:42.096Z,100365.44
2023-05-23T07:37:43.638Z,100374.19
2023-05-23T07:42:45.288Z,100365.63
2023-05-23T07:47:46.717Z,100373.78
2023-05-23T07:52:48.121Z,100382.66
2023-05-23T07:57:49.653Z,100377.75
2023-05-23T08:02:51.199Z,100373.09
2023-05-23T08:07:54.314Z,100378.00
2023-05-23T08:12:55.798Z,100375.03
2023-05-23T08:17:58.026Z,100386.00
2023-05-23T08:23:02.521Z,100380.84
2023-05-23T08:28:04.035Z,100380.72
2023-05-23T08:33:05.617Z,100389.78
2023-05-23T08:38:07.636Z,100401.59
2023-05-23T08:43:10.359Z,100390.31
2023-05-23T08:48:15.135Z,100391.66
2023-05-23T08:53:20.596Z,100399.16
2023-05-23T08:58:22.695Z,100401.13
2023-05-23T09:03:26.759Z,100407.13
2023-05-23T09:08:28.452Z,100402.69
2023-05-23T09:13:31.272Z,100405.75
2023-05-23T09:18:40.945Z,100416.84
2023-05-23T09:23:42.671Z,100412.03
2023-05-23T09:28:44.821Z,100403.66
2023-05-23T09:33:48.138Z,100406.75
2023-05-23T09:38:50.038Z,100403.38
2023-05-23T09:43:54.996Z,100404.03
2023-05-23T09:48:56.660Z,100410.06
2023-05-23T09:53:58.261Z,100403.72
2023-05-23T09:59:01.637Z,100411.94
2023-05-23T10:04:04.882Z,100416.81
2023-05-23T10:09:08.233Z,100421.81
2023-05-23T10:14:10.712Z,100422.81
2023-05-23T10:19:26.271Z,100435.72
2023-05-23T10:24:27.884Z,100431.59
2023-05-23T10:29:30.329Z,100433.91
2023-05-23T10:34:47.458Z,100429.47
2023-05-23T10:40:01.184Z,100430.75
2023-05-23T10:45:22.484Z,100438.53
2023-05-23T10:50:35.509Z,100446.63
2023-05-23T10:55:37.562Z,100448.72
2023-05-23T11:00:39.230Z,100457.25
2023-05-23T11:05:52.427Z,100466.69
2023-05-23T11:11:01.084Z,100454.28
2023-05-23T11:16:26.247Z,100446.34
2023-05-23T11:21:29.248Z,100451.50
2023-05-23T11:26:32.089Z,100451.91
2023-05-23T11:31:38.016Z,100458.31
2023-05-23T11:36:40.597Z,100449.16
2023-05-23T11:41:43.196Z,100451.44
2023-05-23T11:46:59.418Z,100454.69
2023-05-23T11:52:02.546Z,100454.91
2023-05-23T11:57:04.568Z,100463.09
2023-05-23T12:02:07.339Z,100463.72
2023-05-23T12:07:08.776Z,100466.56
2023-05-23T12:12:10.911Z,100469.16
2023-05-23T12:17:13.701Z,100471.00
2023-05-23T12:22:15.530Z,100460.75
2023-05-23T12:27:18.557Z,100469.59
2023-05-23T12:32:20.079Z,100468.84
2023-05-23T12:37:21.998Z,100484.03
2023-05-23T12:42:23.416Z,100479.66
2023-05-23T12:47:24.841Z,100477.97
2023-05-23T12:52:26.415Z,100461.56
2023-05-23T12:57:27.794Z,100481.44
2023-05-23T13:02:29.194Z,100477.22
2023-05-23T13:07:30.827Z,100489.81
2023-05-23T13:12:32.911Z,100495.69
2023-05-23T13:17:34.519Z,100499.16
2023-05-23T13:22:36.140Z,100502.09
2023-05-23T13:27:37.534Z,100496.13
2023-05-23T13:32:39.098Z,100499.34
2023-05-23T13:37:40.862Z,100500.50
2023-05-23T13:42:42.231Z,100487.41
2023-05-23T13:47:44.338Z,100501.13
2023-05-23T13:52:48.987Z,100502.75
2023-05-23T13:57:50.766Z,100501.13
2023-05-23T14:02:52.156Z,100494.25
2023-05-23T14:07:53.589Z,100498.84
2023-05-23T14:12:55.766Z,100496.09
2023-05-23T14:17:57.321Z,100502.47
2023-05-23T14:22:58.827Z,100503.06
2023-05-23T14:28:00.408Z,100511.66
2023-05-23T14:33:01.941Z,100516.56
2023-05-23T14:38:03.384Z,100502.09
2023-05-23T14:43:05.197Z,100518.19
2023-05-23T14:48:06.896Z,100519.56
2023-05-23T14:53:08.340Z,100523.84
2023-05-23T14:58:09.743Z,100528.34
2023-05-23T15:03:11.469Z,100536.84
2023-05-23T15:08:12.954Z,100530.50
2023-05-23T15:13:14.405Z,100536.91
2023-05-23T15:18:27.859Z,100533.22
2023-05-23T15:23:37.305Z,100537.31
2023-05-23T15:28:38.827Z,100536.97
2023-05-23T15:33:40.292Z,100555.00
2023-05-23T15:38:41.759Z,100560.06
2023-05-23T15:43:43.192Z,100558.06
2023-05-23T15:48:44.570Z,100564.19
2023-05-23T15:54:00.024Z,100554.59
2023-05-23T15:59:02.278Z,100556.38
2023-05-23T16:04:04.019Z,100569.00
2023-05-23T16:09:05.671Z,100560.44
2023-05-23T16:14:07.121Z,100564.50
2023-05-23T16:19:08.547Z,100562.16
2023-05-23T16:24:10.025Z,100555.81
2023-05-23T16:29:12.235Z,100555.06
2023-05-23T16:34:13.723Z,100554.47
2023-05-23T16:39:16.078Z,100566.00
2023-05-23T16:44:17.511Z,100564.19
2023-05-23T16:49:18.930Z,100557.09
2023-05-23T16:54:20.369Z,100566.09
2023-05-23T16:59:21.760Z,100571.31
2023-05-23T17:04:23.145Z,100579.00
2023-05-23T17:09:24.698Z,100570.09
2023-05-23T17:14:26.275Z,100570.91
2023-05-23T17:19:27.689Z,100577.25
2023-05-23T17:24:29.148Z,100585.84
2023-05-23T17:29:30.610Z,100588.06
2023-05-23T17:34:32.054Z,100589.53
2023-05-23T17:39:33.533Z,100595.03
2023-05-23T17:44:34.929Z,100595.34
2023-05-23T17:49:38.620Z,100602.69
2023-05-23T17:54:40.484Z,100614.94
2023-05-23T17:59:42.050Z,100613.16
2023-05-23T18:04:43.496Z,100615.19
2023-05-23T18:09:46.394Z,100620.94
2023-05-23T18:14:48.223Z,100623.22
2023-05-23T18:19:49.648Z,100633.56
2023-05-23T18:24:51.103Z,100636.38
2023-05-23T18:29:52.496Z,100641.59
2023-05-23T18:34:54.090Z,100642.13
2023-05-23T18:39:58.063Z,100653.69
2023-05-23T18:44:59.532Z,100647.22
2023-05-23T18:50:01.148Z,100649.28
2023-05-23T18:55:03.223Z,100651.44
2023-05-23T19:00:05.662Z,100652.59
2023-05-23T19:05:07.359Z,100659.13
2023-05-23T19:10:09.118Z,100662.13
2023-05-23T19:15:10.861Z,100672.84
2023-05-23T19:20:13.691Z,100678.75
2023-05-23T19:25:15.124Z,100673.78
2023-05-23T19:30:16.667Z,100684.09
2023-05-23T19:35:18.228Z,100683.69
2023-05-23T19:40:21.711Z,100691.03
2023-05-23T19:45:23.251Z,100688.78
2023-05-23T19:50:24.700Z,100683.59
2023-05-23T19:55:26.376Z,100686.53
2023-05-23T20:00:27.942Z,100695.72
2023-05-23T20:05:29.686Z,100714.06
2023-05-23T20:10:31.094Z,100717.22
2023-05-23T20:15:40.147Z,100728.03
2023-05-23T20:20:42.276Z,100735.38
2023-05-23T20:25:44.328Z,100732.41
2023-05-23T20:30:46.008Z,100737.81
2023-05-23T20:35:50.025Z,100745.50
2023-05-23T20:40:52.658Z,100740.50
2023-05-23T20:45:54.881Z,100747.16
2023-05-23T20:50:57.197Z,100738.59
2023-05-23T20:55:58.653Z,100741.28
2023-05-23T21:01:00.178Z,100757.75
2023-05-23T21:06:01.621Z,100752.50
2023-05-23T21:11:03.053Z,100758.56
2023-05-23T21:16:05.895Z,100759.38
2023-05-23T21:21:07.271Z,100760.81
2023-05-23T21:26:08.712Z,100758.88
2023-05-23T21:31:10.148Z,100770.50
2023-05-23T21:36:11.516Z,100766.47
2023-05-23T21:41:12.889Z,100773.50
2023-05-23T21:46:14.393Z,100783.53
2023-05-23T21:51:16.097Z,100780.97
2023-05-23T21:56:17.484Z,100784.88
2023-05-23T22:01:18.899Z,100792.53
2023-05-23T22:06:20.299Z,100798.09
2023-05-23T22:11:21.723Z,100801.81
2023-05-23T22:16:23.202Z,100794.84
2023-05-23T22:21:25.789Z,100798.22
2023-05-23T22:26:27.343Z,100800.06
2023-05-23T22:31:29.158Z,100810.47
2023-05-23T22:36:33.343Z,100808.72
2023-05-23T22:41:35.815Z,100809.09
2023-05-23T22:46:39.379Z,100813.00
2023-05-23T22:51:42.070Z,100811.66
2023-05-23T22:56:43.501Z,100806.88
2023-05-23T23:01:44.946Z,100808.47
2023-05-23T23:06:46.321Z,100812.59
2023-05-23T23:11:47.706Z,100816.16
2023-05-23T23:16:49.760Z,100807.66
2023-05-23T23:21:51.728Z,100814.16
2023-05-23T23:26:53.151Z,100818.38
2023-05-23T23:31:57.346Z,100826.69
2023-05-23T23:36:58.844Z,100823.16
2023-05-23T23:42:00.362Z,100819.31
2023-05-23T23:47:01.813Z,100820.91
2023-05-23T23:52:03.802Z,100820.25
2023-05-23T23:57:06.623Z,100819.69
